createdAt,value
2018-02-20T00:01:59.482Z,54.13
2018-02-20T00:04:27.554Z,65.57
2018-02-20T00:06:55.617Z,59.33
2018-02-20T00:09:23.678Z,58.30
2018-02-20T00:11:51.795Z,62.00
2018-02-20T00:14:19.880Z,56.20
2018-02-20T00:16:47.923Z,54.13
2018-02-20T00:19:16.773Z,54.70
2018-02-20T00:21:44.885Z,52.60
2018-02-20T00:24:13.038Z,54.97
2018-02-20T00:26:41.120Z,56.17
2018-02-20T00:29:09.201Z,55.37
2018-02-20T00:31:37.270Z,60.73
2018-02-20T00:34:05.343Z,66.73
2018-02-20T00:36:34.265Z,58.40
2018-02-20T00:39:02.459Z,59.60
2018-02-20T00:41:30.509Z,54.97
2018-02-20T00:43:59.417Z,59.63
2018-02-20T00:46:27.507Z,62.80
2018-02-20T00:48:55.583Z,66.40
2018-02-20T00:51:24.414Z,64.03
2018-02-20T00:53:52.477Z,61.40
2018-02-20T00:56:20.639Z,61.63
2018-02-20T00:58:49.485Z,62.17
2018-02-20T01:01:17.583Z,63.57
2018-02-20T01:03:45.659Z,64.53
2018-02-20T01:06:13.709Z,70.63
2018-02-20T01:08:41.795Z,66.90
2018-02-20T01:11:09.878Z,63.50
2018-02-20T01:13:38.701Z,66.73
2018-02-20T01:16:06.813Z,65.03
2018-02-20T01:18:34.857Z,70.60
2018-02-20T01:21:03.066Z,64.87
2018-02-20T01:23:31.148Z,65.80
2018-02-20T01:25:59.215Z,64.27
2018-02-20T01:28:27.280Z,67.23
2018-02-20T01:30:55.429Z,61.50
2018-02-20T01:33:23.498Z,62.33
2018-02-20T01:35:51.583Z,61.90
2018-02-20T01:38:19.648Z,61.83
2018-02-20T01:40:47.727Z,61.23
2018-02-20T01:43:15.840Z,64.30
2018-02-20T01:45:43.916Z,70.97
2018-02-20T01:48:12.755Z,71.57
2018-02-20T01:50:53.532Z,73.00
2018-02-20T01:53:22.368Z,69.13
2018-02-20T01:55:50.445Z,67.90
2018-02-20T01:58:18.523Z,67.10
2018-02-20T02:00:47.583Z,65.20
2018-02-20T02:03:15.663Z,68.13
2018-02-20T02:05:43.727Z,64.23
2018-02-20T02:08:11.870Z,64.87
2018-02-20T02:10:40.701Z,61.93
2018-02-20T02:13:08.781Z,71.40
2018-02-20T02:15:36.862Z,62.43
2018-02-20T02:18:04.929Z,67.70
2018-02-20T02:20:33.756Z,67.53
2018-02-20T02:23:01.832Z,66.37
2018-02-20T02:25:29.894Z,66.47
2018-02-20T02:27:57.984Z,70.83
2018-02-20T02:30:26.047Z,62.33
2018-02-20T02:32:54.275Z,66.43
2018-02-20T02:35:22.351Z,69.23
2018-02-20T02:37:50.434Z,70.73
2018-02-20T02:40:18.513Z,64.43
2018-02-20T02:42:46.587Z,72.43
2018-02-20T02:45:14.760Z,68.33
2018-02-20T02:47:42.800Z,74.97
2018-02-20T02:50:10.900Z,66.23
2018-02-20T02:52:38.958Z,76.30
2018-02-20T02:55:07.034Z,71.83
2018-02-20T02:57:35.099Z,66.60
2018-02-20T03:00:03.181Z,68.00
2018-02-20T03:02:31.254Z,72.50
2018-02-20T03:04:59.404Z,71.87
2018-02-20T03:07:27.482Z,77.07
2018-02-20T03:09:55.557Z,73.10
2018-02-20T03:12:23.625Z,71.77
2018-02-20T03:14:51.697Z,66.77
2018-02-20T03:17:19.765Z,71.20
2018-02-20T03:19:47.817Z,73.23
2018-02-20T03:22:15.873Z,68.90
2018-02-20T03:24:43.929Z,69.13
2018-02-20T03:27:11.999Z,67.27
2018-02-20T03:29:40.192Z,70.30
2018-02-20T03:32:08.263Z,70.57
2018-02-20T03:34:36.317Z,68.53
2018-02-20T03:37:05.204Z,68.97
2018-02-20T03:39:33.272Z,68.07
2018-02-20T03:42:01.329Z,70.87
2018-02-20T03:44:30.207Z,70.33
2018-02-20T03:46:58.258Z,75.63
2018-02-20T03:49:26.332Z,73.87
2018-02-20T03:51:54.391Z,71.53
2018-02-20T03:54:22.473Z,73.87
2018-02-20T03:56:50.528Z,67.67
2018-02-20T03:59:18.588Z,69.97
2018-02-20T04:01:47.435Z,71.27
2018-02-20T04:04:15.498Z,69.37
2018-02-20T04:06:43.574Z,72.87
2018-02-20T04:09:12.417Z,69.47
2018-02-20T04:11:40.511Z,69.83
2018-02-20T04:14:08.598Z,68.67
2018-02-20T04:16:36.673Z,72.03
2018-02-20T04:19:04.742Z,66.03
2018-02-20T04:21:32.838Z,73.00
2018-02-20T04:24:00.904Z,67.67
2018-02-20T04:26:28.976Z,70.27
2018-02-20T04:28:57.052Z,72.13
2018-02-20T04:31:25.153Z,68.87
2018-02-20T04:33:53.158Z,64.20
2018-02-20T04:36:21.225Z,67.63
2018-02-20T04:38:49.279Z,65.10
2018-02-20T04:41:17.401Z,68.17
2018-02-20T04:43:45.641Z,65.00
2018-02-20T04:46:13.687Z,68.93
2018-02-20T04:48:41.747Z,64.67
2018-02-20T04:51:09.806Z,67.40
2018-02-20T04:53:37.854Z,63.90
2018-02-20T04:56:06.005Z,65.37
2018-02-20T04:58:34.101Z,74.10
2018-02-20T05:01:02.167Z,71.73
2018-02-20T05:03:30.222Z,77.53
2018-02-20T05:05:58.329Z,78.77
2018-02-20T05:08:27.104Z,75.13
2018-02-20T05:10:55.155Z,69.57
2018-02-20T05:13:23.215Z,71.20
2018-02-20T05:15:51.262Z,72.93
2018-02-20T05:18:19.307Z,76.63
2018-02-20T05:20:47.368Z,67.47
2018-02-20T05:23:15.422Z,69.13
2018-02-20T05:25:43.500Z,76.23
2018-02-20T05:28:11.548Z,72.87
2018-02-20T05:30:40.382Z,68.63
2018-02-20T05:33:08.441Z,70.60
2018-02-20T05:35:37.289Z,63.83
2018-02-20T05:38:05.366Z,69.80
2018-02-20T05:40:33.416Z,67.63
2018-02-20T05:43:02.001Z,64.20
2018-02-20T05:45:30.820Z,67.57
2018-02-20T05:47:58.882Z,90.37
2018-02-20T05:50:27.760Z,82.37
2018-02-20T05:52:55.847Z,77.73
2018-02-20T05:55:23.895Z,82.37
2018-02-20T05:57:51.969Z,81.57
2018-02-20T06:00:19.999Z,75.40
2018-02-20T06:02:48.048Z,69.47
2018-02-20T06:05:16.114Z,70.07
2018-02-20T06:07:44.187Z,121.73
2018-02-20T06:10:12.264Z,138.20
2018-02-20T06:12:40.324Z,86.47
2018-02-20T06:15:08.378Z,89.10
2018-02-20T06:17:36.436Z,69.13
2018-02-20T06:20:05.213Z,67.50
2018-02-20T06:22:33.254Z,69.70
2018-02-20T06:25:02.106Z,73.17
2018-02-20T06:27:30.184Z,71.50
2018-02-20T06:29:58.255Z,69.83
2018-02-20T06:32:27.064Z,70.63
2018-02-20T06:34:55.129Z,68.60
2018-02-20T06:37:23.177Z,70.03
2018-02-20T06:39:51.238Z,67.83
2018-02-20T06:42:19.307Z,72.77
2018-02-20T06:44:47.364Z,69.53
2018-02-20T06:47:16.207Z,73.47
2018-02-20T06:49:44.266Z,71.40
2018-02-20T06:52:12.330Z,64.87
2018-02-20T06:54:41.146Z,66.17
2018-02-20T06:57:09.202Z,75.53
2018-02-20T06:59:37.260Z,60.93
2018-02-20T07:02:05.313Z,59.50
2018-02-20T07:04:33.361Z,74.43
2018-02-20T07:07:01.427Z,70.30
2018-02-20T07:09:29.481Z,85.33
2018-02-20T07:11:57.661Z,85.37
2018-02-20T07:14:25.717Z,84.93
2018-02-20T07:16:53.765Z,79.90
2018-02-20T07:19:21.819Z,70.97
2018-02-20T07:21:49.887Z,65.23
2018-02-20T07:24:17.986Z,63.83
2018-02-20T07:26:46.048Z,56.67
2018-02-20T07:29:14.095Z,60.10
2018-02-20T07:31:42.157Z,57.83
2018-02-20T07:34:10.201Z,57.83
2018-02-20T07:36:38.260Z,64.93
2018-02-20T07:39:06.335Z,61.17
2018-02-20T07:41:35.165Z,61.40
2018-02-20T07:44:03.232Z,62.30
2018-02-20T07:46:31.295Z,61.40
2018-02-20T07:49:00.112Z,61.47
2018-02-20T07:51:28.202Z,57.73
2018-02-20T07:53:56.265Z,56.47
2018-02-20T07:56:24.367Z,53.83
2018-02-20T07:58:52.419Z,50.23
2018-02-20T08:01:20.483Z,49.00
2018-02-20T08:03:48.534Z,55.77
2018-02-20T08:06:16.596Z,58.23
2018-02-20T08:08:44.859Z,55.30
2018-02-20T08:11:12.916Z,52.73
2018-02-20T08:13:40.993Z,48.97
2018-02-20T08:16:09.072Z,50.10
2018-02-20T08:18:37.165Z,50.37
2018-02-20T08:21:05.219Z,48.67
2018-02-20T08:23:33.274Z,48.00
2018-02-20T08:26:02.187Z,44.13
2018-02-20T08:28:30.291Z,45.10
2018-02-20T08:30:58.369Z,42.27
2018-02-20T08:33:26.466Z,43.90
2018-02-20T08:35:54.534Z,46.33
2018-02-20T08:38:22.586Z,53.60
2018-02-20T08:40:51.410Z,66.27
2018-02-20T08:43:19.483Z,40.33
2018-02-20T08:45:48.376Z,33.70
2018-02-20T08:48:17.204Z,52.47
2018-02-20T08:50:45.268Z,27.37
2018-02-20T08:53:14.075Z,33.03
2018-02-20T08:55:42.127Z,27.13
2018-02-20T08:58:10.187Z,24.67
2018-02-20T09:00:38.278Z,23.93
2018-02-20T09:03:06.349Z,18.50
2018-02-20T09:05:34.412Z,22.97
2018-02-20T09:08:02.475Z,19.97
2018-02-20T09:10:30.554Z,20.50
2018-02-20T09:12:58.607Z,20.53
2018-02-20T09:15:26.669Z,20.27
2018-02-20T09:17:54.785Z,20.27
2018-02-20T09:20:22.835Z,22.57
2018-02-20T09:22:50.904Z,25.53
2018-02-20T09:25:18.960Z,26.90
2018-02-20T09:27:47.009Z,25.00
2018-02-20T09:30:15.078Z,28.20
2018-02-20T09:32:43.133Z,24.47
2018-02-20T09:35:11.199Z,29.67
2018-02-20T09:37:39.252Z,26.67
2018-02-20T09:40:08.081Z,27.47
2018-02-20T09:42:36.135Z,24.57
2018-02-20T09:45:05.030Z,22.80
2018-02-20T09:47:33.104Z,24.20
2018-02-20T09:50:01.160Z,22.73
2018-02-20T09:52:29.228Z,22.57
2018-02-20T09:54:57.289Z,21.87
2018-02-20T09:57:25.342Z,22.43
2018-02-20T09:59:53.393Z,24.13
2018-02-20T10:02:21.476Z,24.23
2018-02-20T10:04:49.516Z,27.07
2018-02-20T10:07:18.370Z,22.57
2018-02-20T10:09:46.422Z,25.70
2018-02-20T10:12:14.555Z,28.60
2018-02-20T10:14:42.819Z,26.90
2018-02-20T10:17:10.867Z,23.23
2018-02-20T10:19:38.927Z,22.37
2018-02-20T10:22:06.978Z,22.53
2018-02-20T10:24:35.051Z,23.10
2018-02-20T10:27:03.120Z,24.50
2018-02-20T10:29:31.187Z,23.87
2018-02-20T10:31:59.240Z,23.47
2018-02-20T10:34:27.302Z,22.70
2018-02-20T10:36:55.368Z,25.77
2018-02-20T10:39:23.404Z,25.73
2018-02-20T10:41:52.242Z,23.33
2018-02-20T10:44:20.304Z,27.07
2018-02-20T10:46:48.378Z,22.53
2018-02-20T10:49:16.433Z,22.73
2018-02-20T10:51:44.991Z,24.20
2018-02-20T10:54:13.043Z,32.03
2018-02-20T10:56:41.100Z,24.47
2018-02-20T10:59:09.938Z,25.87
2018-02-20T11:01:38.044Z,26.03
2018-02-20T11:04:06.952Z,26.13
2018-02-20T11:06:35.017Z,27.43
2018-02-20T11:09:03.085Z,32.90
2018-02-20T11:11:31.231Z,26.57
2018-02-20T11:13:59.348Z,29.50
2018-02-20T11:16:27.407Z,39.57
2018-02-20T11:18:56.248Z,27.13
2018-02-20T11:21:24.340Z,33.63
2018-02-20T11:23:52.403Z,45.53
2018-02-20T11:26:20.518Z,38.43
2018-02-20T11:28:48.591Z,35.30
2018-02-20T11:31:16.651Z,30.00
2018-02-20T11:33:44.709Z,37.03
2018-02-20T11:36:12.820Z,28.83
2018-02-20T11:38:40.944Z,29.23
2018-02-20T11:41:09.224Z,28.17
2018-02-20T11:43:37.483Z,28.57
2018-02-20T11:46:05.535Z,29.10
2018-02-20T11:48:34.382Z,31.90
2018-02-20T11:51:02.580Z,28.00
2018-02-20T11:53:30.632Z,29.93
2018-02-20T11:55:58.687Z,32.00
2018-02-20T11:58:26.750Z,35.50
2018-02-20T12:00:54.805Z,33.23
2018-02-20T12:03:22.867Z,38.03
2018-02-20T12:05:50.941Z,32.57
2018-02-20T12:08:19.764Z,36.93
2018-02-20T12:10:47.833Z,36.17
2018-02-20T12:13:15.882Z,35.67
2018-02-20T12:15:44.653Z,30.50
2018-02-20T12:18:12.707Z,33.87
2018-02-20T12:20:40.808Z,34.87
2018-02-20T12:23:09.608Z,31.83
2018-02-20T12:25:37.664Z,35.97
2018-02-20T12:28:05.755Z,34.57
2018-02-20T12:30:33.831Z,37.47
2018-02-20T12:33:01.951Z,35.50
2018-02-20T12:35:30.026Z,30.70
2018-02-20T12:37:58.070Z,33.47
2018-02-20T12:40:26.923Z,36.23
2018-02-20T12:42:54.994Z,36.33
2018-02-20T12:45:23.051Z,38.50
2018-02-20T12:47:51.100Z,39.80
2018-02-20T12:50:19.189Z,37.90
2018-02-20T12:52:47.256Z,35.50
2018-02-20T12:55:15.306Z,30.53
2018-02-20T12:57:44.096Z,35.23
2018-02-20T13:00:12.167Z,38.03
2018-02-20T13:02:40.978Z,38.97
2018-02-20T13:05:09.065Z,44.17
2018-02-20T13:07:37.870Z,50.50
2018-02-20T13:10:05.936Z,41.50
2018-02-20T13:12:33.987Z,36.43
2018-02-20T13:15:02.052Z,40.40
2018-02-20T13:17:30.124Z,46.63
2018-02-20T13:19:58.195Z,72.43
2018-02-20T13:22:26.253Z,40.73
2018-02-20T13:24:54.332Z,38.27
2018-02-20T13:27:23.136Z,45.73
2018-02-20T13:29:51.196Z,41.10
2018-02-20T13:32:20.018Z,41.93
2018-02-20T13:34:48.158Z,44.43
2018-02-20T13:37:16.229Z,44.73
2018-02-20T13:39:44.304Z,40.93
2018-02-20T13:42:12.360Z,48.53
2018-02-20T13:44:40.439Z,51.30
2018-02-20T13:47:08.484Z,41.17
2018-02-20T13:49:36.539Z,44.17
2018-02-20T13:52:04.608Z,45.87
2018-02-20T13:54:32.652Z,41.87
2018-02-20T13:57:01.484Z,44.33
2018-02-20T13:59:29.540Z,40.60
2018-02-20T14:01:58.362Z,50.40
2018-02-20T14:04:26.424Z,43.53
2018-02-20T14:06:55.259Z,46.50
2018-02-20T14:09:23.350Z,51.67
2018-02-20T14:11:51.436Z,58.13
2018-02-20T14:14:19.615Z,45.67
2018-02-20T14:16:47.676Z,40.87
2018-02-20T14:19:15.754Z,40.87
2018-02-20T14:21:44.576Z,42.10
2018-02-20T14:24:12.648Z,44.30
2018-02-20T14:26:40.692Z,42.50
2018-02-20T14:29:08.760Z,44.27
2018-02-20T14:31:36.819Z,46.17
2018-02-20T14:34:04.888Z,41.93
2018-02-20T14:36:32.956Z,44.23
2018-02-20T14:39:01.774Z,47.03
2018-02-20T14:41:29.837Z,49.90
2018-02-20T14:43:58.654Z,45.00
2018-02-20T14:46:26.708Z,45.23
2018-02-20T14:48:55.526Z,46.27
2018-02-20T14:51:24.348Z,47.47
2018-02-20T14:53:53.166Z,44.87
2018-02-20T14:56:21.239Z,53.43
2018-02-20T14:58:49.300Z,41.33
2018-02-20T15:01:17.347Z,52.57
2018-02-20T15:03:45.419Z,51.57
2018-02-20T15:06:13.473Z,53.33
2018-02-20T15:08:41.528Z,51.70
2018-02-20T15:11:09.580Z,52.00
2018-02-20T15:13:37.634Z,54.93
2018-02-20T15:16:05.707Z,52.40
2018-02-20T15:18:33.783Z,58.10
2018-02-20T15:21:01.804Z,58.37
2018-02-20T15:23:29.872Z,56.47
2018-02-20T15:25:57.920Z,54.90
2018-02-20T15:28:25.986Z,57.63
2018-02-20T15:30:54.797Z,56.93
2018-02-20T15:33:22.871Z,59.03
2018-02-20T15:35:51.698Z,63.63
2018-02-20T15:38:19.780Z,62.13
2018-02-20T15:40:47.832Z,67.37
2018-02-20T15:43:16.698Z,61.67
2018-02-20T15:45:44.742Z,66.57
2018-02-20T15:48:12.815Z,63.53
2018-02-20T15:50:40.871Z,58.57
2018-02-20T15:53:09.687Z,64.00
2018-02-20T15:55:38.510Z,66.60
2018-02-20T15:58:06.584Z,68.30
2018-02-20T16:00:34.644Z,60.43
2018-02-20T16:03:02.686Z,56.10
2018-02-20T16:05:30.745Z,59.93
2018-02-20T16:07:58.814Z,57.87
2018-02-20T16:10:26.900Z,59.10
2018-02-20T16:12:54.967Z,60.53
2018-02-20T16:15:23.789Z,54.47
2018-02-20T16:17:51.838Z,61.10
2018-02-20T16:20:19.885Z,61.37
2018-02-20T16:22:47.950Z,63.63
2018-02-20T16:25:16.121Z,58.23
2018-02-20T16:27:44.870Z,65.23
2018-02-20T16:30:12.914Z,57.13
2018-02-20T16:32:40.991Z,64.73
2018-02-20T16:35:09.036Z,59.73
2018-02-20T16:37:37.099Z,65.73
2018-02-20T16:40:05.147Z,61.43
2018-02-20T16:42:33.211Z,65.60
2018-02-20T16:45:01.260Z,56.30
2018-02-20T16:47:29.321Z,54.67
2018-02-20T16:49:57.384Z,65.20
2018-02-20T16:52:25.440Z,65.57
2018-02-20T16:54:54.262Z,58.37
2018-02-20T16:57:22.323Z,65.10
2018-02-20T16:59:51.165Z,56.90
2018-02-20T17:02:19.220Z,57.33
2018-02-20T17:04:47.271Z,63.20
2018-02-20T17:07:15.319Z,68.47
2018-02-20T17:09:43.383Z,63.30
2018-02-20T17:12:11.454Z,63.13
2018-02-20T17:14:39.518Z,77.13
2018-02-20T17:17:08.336Z,79.90
2018-02-20T17:19:36.387Z,91.47
2018-02-20T17:22:04.481Z,67.10
2018-02-20T17:24:32.496Z,61.27
2018-02-20T17:27:00.565Z,60.40
2018-02-20T17:29:28.625Z,67.17
2018-02-20T17:31:57.453Z,58.67
2018-02-20T17:34:25.499Z,65.87
2018-02-20T17:36:53.582Z,65.00
2018-02-20T17:39:21.620Z,58.93
2018-02-20T17:41:49.716Z,64.23
2018-02-20T17:44:17.865Z,53.50
2018-02-20T17:46:46.033Z,54.73
2018-02-20T17:49:14.884Z,62.47
2018-02-20T17:51:42.941Z,56.27
2018-02-20T17:54:11.006Z,54.57
2018-02-20T17:56:39.814Z,63.13
2018-02-20T17:59:08.649Z,60.03
2018-02-20T18:01:36.714Z,66.83
2018-02-20T18:04:04.750Z,56.30
2018-02-20T18:06:32.794Z,54.40
2018-02-20T18:09:00.869Z,51.37
2018-02-20T18:11:28.935Z,55.87
2018-02-20T18:13:57.057Z,58.60
2018-02-20T18:16:25.819Z,54.50
2018-02-20T18:18:53.897Z,55.93
2018-02-20T18:21:22.719Z,57.87
2018-02-20T18:23:50.787Z,57.77
2018-02-20T18:26:18.854Z,64.53
2018-02-20T18:28:46.891Z,66.17
2018-02-20T18:31:14.950Z,69.40
2018-02-20T18:33:43.860Z,74.80
2018-02-20T18:36:11.922Z,68.17
2018-02-20T18:38:39.976Z,67.93
2018-02-20T18:41:08.029Z,63.03
2018-02-20T18:43:36.088Z,69.33
2018-02-20T18:46:04.155Z,60.53
2018-02-20T18:48:32.967Z,77.23
2018-02-20T18:51:01.030Z,72.93
2018-02-20T18:53:29.860Z,69.57
2018-02-20T18:55:57.908Z,69.10
2018-02-20T18:58:25.964Z,77.53
2018-02-20T19:00:54.011Z,77.20
2018-02-20T19:03:22.836Z,73.30
2018-02-20T19:05:50.893Z,80.33
2018-02-20T19:08:19.063Z,70.97
2018-02-20T19:10:47.109Z,70.97
2018-02-20T19:13:15.195Z,69.83
2018-02-20T19:15:43.255Z,73.43
2018-02-20T19:18:11.317Z,80.27
2018-02-20T19:20:39.392Z,76.57
2018-02-20T19:23:07.524Z,73.37
2018-02-20T19:25:35.575Z,76.53
2018-02-20T19:28:03.634Z,81.20
2018-02-20T19:30:31.702Z,80.20
2018-02-20T19:33:00.507Z,76.57
2018-02-20T19:35:28.574Z,80.30
2018-02-20T19:37:57.392Z,73.53
2018-02-20T19:40:26.212Z,82.13
2018-02-20T19:42:54.278Z,87.30
2018-02-20T19:45:22.328Z,72.93
2018-02-20T19:47:50.391Z,76.37
2018-02-20T19:50:18.457Z,88.17
2018-02-20T19:52:46.511Z,86.17
2018-02-20T19:55:14.553Z,85.47
2018-02-20T19:57:42.617Z,87.37
2018-02-20T20:00:10.684Z,78.40
2018-02-20T20:02:38.744Z,79.90
2018-02-20T20:05:06.795Z,77.53
2018-02-20T20:07:34.856Z,78.27
2018-02-20T20:10:02.928Z,83.77
2018-02-20T20:12:31.000Z,76.83
2018-02-20T20:14:59.067Z,78.27
2018-02-20T20:17:27.137Z,81.67
2018-02-20T20:19:55.985Z,87.60
2018-02-20T20:22:24.035Z,71.73
2018-02-20T20:24:52.110Z,71.87
2018-02-20T20:27:20.919Z,72.60
2018-02-20T20:29:48.969Z,76.73
2018-02-20T20:32:17.028Z,74.70
2018-02-20T20:34:45.105Z,76.77
2018-02-20T20:37:13.183Z,72.53
2018-02-20T20:39:41.245Z,73.13
2018-02-20T20:42:09.313Z,76.93
2018-02-20T20:44:38.130Z,99.83
2018-02-20T20:47:06.187Z,81.10
2018-02-20T20:49:35.017Z,78.93
2018-02-20T20:52:03.062Z,93.70
2018-02-20T20:54:31.880Z,73.73
2018-02-20T20:56:59.940Z,82.17
2018-02-20T20:59:28.812Z,70.37
2018-02-20T21:01:56.870Z,79.17
2018-02-20T21:04:24.911Z,82.60
2018-02-20T21:06:53.798Z,102.57
2018-02-20T21:09:21.848Z,86.47
2018-02-20T21:11:49.899Z,91.33
2018-02-20T21:14:17.957Z,91.20
2018-02-20T21:16:46.027Z,114.93
2018-02-20T21:19:14.083Z,231.83
2018-02-20T21:21:42.151Z,88.97
2018-02-20T21:24:10.225Z,77.70
2018-02-20T21:26:38.275Z,108.87
2018-02-20T21:29:06.351Z,131.47
2018-02-20T21:31:34.416Z,90.47
2018-02-20T21:34:02.477Z,146.03
2018-02-20T21:36:30.542Z,299.63
2018-02-20T21:38:58.621Z,90.77
2018-02-20T21:41:26.671Z,96.67
2018-02-20T21:43:54.739Z,120.83
2018-02-20T21:46:22.788Z,90.47
2018-02-20T21:48:50.856Z,124.53
2018-02-20T21:51:18.921Z,122.07
2018-02-20T21:53:47.726Z,111.00
2018-02-20T21:56:16.560Z,89.93
2018-02-20T21:58:44.625Z,184.20
2018-02-20T22:01:12.666Z,99.20
2018-02-20T22:03:40.723Z,145.10
2018-02-20T22:06:08.908Z,93.20
2018-02-20T22:08:36.948Z,164.23
2018-02-20T22:11:05.979Z,95.13
2018-02-20T22:13:34.041Z,82.83
2018-02-20T22:16:02.088Z,107.50
2018-02-20T22:18:30.160Z,99.40
2018-02-20T22:20:58.218Z,106.60
2018-02-20T22:23:26.273Z,79.87
2018-02-20T22:25:54.326Z,85.97
2018-02-20T22:28:22.379Z,113.30
2018-02-20T22:30:50.448Z,109.17
2018-02-20T22:33:18.525Z,98.00
2018-02-20T22:35:46.633Z,98.93
2018-02-20T22:38:14.687Z,87.87
2018-02-20T22:40:42.847Z,115.70
2018-02-20T22:43:11.731Z,142.57
2018-02-20T22:45:39.791Z,126.47
2018-02-20T22:48:07.852Z,118.57
2018-02-20T22:50:35.921Z,119.00
2018-02-20T22:53:04.152Z,190.50
2018-02-20T22:55:32.611Z,97.50
2018-02-20T22:58:00.684Z,111.90
2018-02-20T23:00:28.750Z,142.63
2018-02-20T23:02:57.576Z,164.73
2018-02-20T23:05:25.643Z,98.73
2018-02-20T23:07:53.776Z,153.83
2018-02-20T23:10:22.815Z,98.60
2018-02-20T23:12:51.652Z,155.50
2018-02-20T23:15:19.723Z,127.93
2018-02-20T23:17:47.780Z,101.70
2018-02-20T23:20:15.832Z,115.37
2018-02-20T23:22:44.722Z,123.73
2018-02-20T23:25:12.788Z,90.93
2018-02-20T23:27:40.846Z,122.03
2018-02-20T23:30:09.667Z,108.60
2018-02-20T23:32:37.744Z,163.67
2018-02-20T23:35:06.364Z,152.20
2018-02-20T23:37:34.422Z,183.13
2018-02-20T23:40:02.869Z,145.33
2018-02-20T23:42:31.592Z,129.93
2018-02-20T23:45:00.426Z,87.43
2018-02-20T23:47:28.480Z,95.63
2018-02-20T23:49:57.337Z,135.03
2018-02-20T23:52:25.404Z,148.47
2018-02-20T23:54:53.451Z,164.10
2018-02-20T23:57:22.531Z,111.10
2018-02-20T23:59:50.636Z,112.13
